Time;durP1;ratioP1;P1;durP2;ratioP2;P2;SDS_P1;SDS_P2;PMS_P1;PMS_P2;Temp;Humidity;BMP_temperature;BMP_pressure;BME280_temperature;BME280_humidity;BME280_pressure;Samples;Min_cycle;Max_cycle;Signal;HPM_P1;HPM_P2
2021/01/21 00:01:54;;;;;;;7.22;4.82;;;5.40;61.00;;;;;;5020457;28;20196;-75
2021/01/21 00:04:20;;;;;;;8.15;5.28;;;5.30;60.70;;;;;;5020658;28;20227;-78
2021/01/21 00:06:46;;;;;;;5.53;4.93;;;5.40;62.60;;;;;;5020281;28;20200;-78
2021/01/21 00:09:14;;;;;;;6.75;5.47;;;5.40;61.10;;;;;;5020259;28;20232;-78
2021/01/21 00:11:41;;;;;;;7.22;4.93;;;5.40;60.80;;;;;;5020123;28;20295;-76
2021/01/21 00:14:07;;;;;;;8.85;5.72;;;5.40;61.50;;;;;;5020241;28;20189;-76
2021/01/21 00:16:34;;;;;;;8.05;5.47;;;5.40;62.30;;;;;;5019841;28;20192;-79
2021/01/21 00:19:00;;;;;;;8.35;4.90;;;5.40;61.50;;;;;;5014135;28;20232;-74
2021/01/21 00:21:26;;;;;;;5.88;4.72;;;5.40;61.30;;;;;;5010507;28;20218;-75
2021/01/21 00:23:53;;;;;;;9.48;4.68;;;5.40;60.60;;;;;;5010069;28;20251;-74
2021/01/21 00:26:19;;;;;;;7.45;4.78;;;5.50;60.30;;;;;;5010167;28;20259;-75
2021/01/21 00:28:46;;;;;;;8.35;4.82;;;5.50;59.70;;;;;;5009031;28;20232;-75
2021/01/21 00:31:13;;;;;;;5.85;4.75;;;5.60;59.60;;;;;;5009622;28;20666;-75
2021/01/21 00:33:40;;;;;;;6.72;4.40;;;5.70;59.70;;;;;;5009796;28;20299;-75
2021/01/21 00:36:07;;;;;;;4.78;4.28;;;5.70;59.40;;;;;;5009540;28;20240;-74
2021/01/21 00:38:33;;;;;;;5.60;4.05;;;5.70;59.10;;;;;;5005941;28;20224;-75
2021/01/21 00:40:59;;;;;;;6.68;4.32;;;5.80;58.50;;;;;;5007887;28;20271;-76
2021/01/21 00:43:26;;;;;;;5.80;4.53;;;6.00;58.40;;;;;;5006900;28;20215;-75
2021/01/21 00:45:55;;;;;;;5.10;4.60;;;6.00;58.00;;;;;;5006283;28;20256;-73
2021/01/21 00:48:21;;;;;;;6.95;5.13;;;6.00;57.90;;;;;;5007040;28;20256;-75
2021/01/21 00:50:48;;;;;;;6.70;5.00;;;6.00;57.90;;;;;;5007639;28;20669;-73
2021/01/21 00:53:14;;;;;;;8.23;5.45;;;6.00;57.70;;;;;;5013756;28;20205;-78
2021/01/21 00:55:41;;;;;;;6.93;4.72;;;6.10;57.60;;;;;;5008569;28;20204;-73
2021/01/21 00:58:07;;;;;;;5.55;4.90;;;6.10;57.80;;;;;;4995732;28;20320;-74
2021/01/21 01:00:34;;;;;;;7.28;5.88;;;6.10;57.70;;;;;;4995807;28;20299;-76
2021/01/21 01:03:01;;;;;;;5.70;5.20;;;6.10;57.70;;;;;;4995859;28;20259;-74
2021/01/21 01:05:27;;;;;;;7.95;5.35;;;6.10;56.90;;;;;;4995461;28;20279;-73
2021/01/21 01:07:54;;;;;;;8.73;6.50;;;6.00;56.20;;;;;;4994888;28;20295;-77
2021/01/21 01:10:21;;;;;;;6.35;5.30;;;6.10;56.30;;;;;;4994722;28;20303;-73
2021/01/21 01:12:47;;;;;;;6.30;5.35;;;6.10;57.40;;;;;;4994859;28;20696;-74
2021/01/21 01:15:15;;;;;;;7.35;5.50;;;5.90;58.10;;;;;;4994264;28;20664;-74
2021/01/21 01:17:42;;;;;;;5.28;4.72;;;5.90;59.10;;;;;;4994362;28;20236;-73
2021/01/21 01:20:10;;;;;;;10.27;6.40;;;5.90;59.10;;;;;;4994323;28;20661;-74
2021/01/21 01:22:36;;;;;;;6.78;5.63;;;5.90;59.00;;;;;;4994183;28;20311;-75
2021/01/21 01:25:03;;;;;;;6.05;5.15;;;6.00;59.40;;;;;;4994075;28;20227;-76
2021/01/21 01:27:29;;;;;;;7.63;5.70;;;5.90;59.60;;;;;;4994020;28;20291;-73
2021/01/21 01:29:55;;;;;;;6.47;4.90;;;5.90;59.70;;;;;;4994013;28;20240;-74
2021/01/21 01:32:22;;;;;;;7.10;5.65;;;5.90;60.00;;;;;;4994305;28;20291;-73
2021/01/21 01:34:48;;;;;;;8.40;5.22;;;5.90;60.30;;;;;;4994046;28;20201;-73
2021/01/21 01:37:15;;;;;;;9.82;5.88;;;5.90;61.20;;;;;;4993757;28;20247;-75
2021/01/21 01:39:42;;;;;;;7.40;5.72;;;5.80;60.40;;;;;;4994680;28;20314;-73
2021/01/21 01:42:09;;;;;;;8.02;5.40;;;5.80;60.50;;;;;;4993886;28;20224;-74
2021/01/21 01:44:36;;;;;;;6.70;5.68;;;5.90;60.60;;;;;;4994478;28;20315;-74
2021/01/21 01:47:03;;;;;;;8.77;5.47;;;5.90;60.20;;;;;;4993534;28;20232;-74
2021/01/21 01:49:30;;;;;;;6.68;5.60;;;5.80;60.10;;;;;;4993470;28;20418;-73
2021/01/21 01:51:56;;;;;;;7.47;5.68;;;5.80;60.50;;;;;;4993556;28;20300;-73
2021/01/21 01:54:23;;;;;;;8.02;5.55;;;5.80;60.00;;;;;;4993510;28;20299;-73
2021/01/21 01:56:50;;;;;;;6.40;5.68;;;5.70;60.30;;;;;;4993428;28;20243;-73
2021/01/21 01:59:17;;;;;;;7.18;6.00;;;5.80;59.60;;;;;;4994278;28;20315;-73
2021/01/21 02:01:46;;;;;;;8.80;6.07;;;5.80;59.30;;;;;;4993871;28;20216;-74
2021/01/21 02:04:12;;;;;;;10.15;5.53;;;5.80;59.50;;;;;;4993798;28;20295;-74
2021/01/21 02:06:38;;;;;;;6.60;5.45;;;5.70;59.30;;;;;;4993329;28;20205;-73
2021/01/21 02:09:05;;;;;;;6.80;5.47;;;5.70;59.90;;;;;;4992810;28;20443;-74
2021/01/21 02:11:43;;;;;;;11.27;5.85;;;5.70;60.30;;;;;;4993302;28;20211;-73
2021/01/21 02:14:16;;;;;;;7.38;5.95;;;5.80;60.00;;;;;;4993477;28;20224;-75
2021/01/21 02:16:49;;;;;;;6.40;5.45;;;5.90;59.40;;;;;;4993164;28;20199;-73
2021/01/21 02:19:56;;;;;;;5.90;5.22;;;5.80;58.80;;;;;;4994242;28;20229;-73
2021/01/21 02:22:59;;;;;;;8.57;5.13;;;5.80;59.60;;;;;;5011927;28;20205;-74
2021/01/21 02:25:31;;;;;;;7.55;5.80;;;5.80;59.90;;;;;;5016717;28;20212;-76
2021/01/21 02:28:31;;;;;;;6.43;4.90;;;5.80;60.40;;;;;;5007845;28;20207;-74
2021/01/21 02:31:03;;;;;;;7.57;5.93;;;5.80;61.20;;;;;;5002434;28;20209;-73
2021/01/21 02:34:00;;;;;;;6.82;5.68;;;5.80;60.00;;;;;;5003062;28;20208;-73
2021/01/21 02:36:32;;;;;;;8.40;5.93;;;5.70;59.70;;;;;;4980032;28;20228;-73
2021/01/21 02:39:01;;;;;;;6.35;5.15;;;5.70;60.50;;;;;;4999469;28;20224;-74
2021/01/21 02:41:27;;;;;;;6.70;5.30;;;5.70;59.40;;;;;;4995012;28;20217;-73
2021/01/21 02:43:54;;;;;;;7.05;5.72;;;5.70;59.50;;;;;;5000324;28;20476;-73
2021/01/21 02:46:21;;;;;;;7.63;5.63;;;5.70;59.20;;;;;;4996243;28;20278;-73
2021/01/21 02:48:50;;;;;;;7.30;6.05;;;5.60;58.90;;;;;;4992279;28;20314;-75
2021/01/21 02:51:24;;;;;;;6.68;5.35;;;5.60;58.80;;;;;;4992164;28;20212;-74
2021/01/21 02:54:01;;;;;;;7.07;5.80;;;5.60;59.00;;;;;;4993290;28;20196;-73
2021/01/21 02:56:33;;;;;;;7.38;5.13;;;5.50;57.80;;;;;;4992430;28;20677;-74
2021/01/21 02:59:02;;;;;;;6.90;5.32;;;5.50;57.90;;;;;;4991965;28;20224;-75
2021/01/21 03:01:34;;;;;;;5.78;5.18;;;5.50;58.30;;;;;;4992376;28;20213;-74
2021/01/21 03:04:03;;;;;;;7.05;5.72;;;5.50;58.20;;;;;;4991488;28;20208;-74
2021/01/21 03:33:26;;;;;;;5.72;4.85;;;5.60;58.20;;;;;;4997241;28;20192;-74
2021/01/21 03:35:52;;;;;;;5.07;4.55;;;5.60;58.20;;;;;;4992344;28;20279;-73
2021/01/21 03:38:19;;;;;;;8.50;5.53;;;5.70;58.10;;;;;;4993093;28;20228;-72
2021/01/21 03:40:45;;;;;;;6.47;4.80;;;5.70;58.40;;;;;;4992257;28;20220;-74
2021/01/21 03:43:12;;;;;;;6.88;5.10;;;5.80;57.70;;;;;;4995652;28;20307;-74
2021/01/21 03:45:38;;;;;;;5.20;4.22;;;5.80;58.00;;;;;;4993756;28;20264;-73
2021/01/21 03:48:05;;;;;;;6.03;5.07;;;5.80;57.90;;;;;;4991917;28;20233;-74
2021/01/21 03:50:32;;;;;;;6.68;4.65;;;5.80;58.10;;;;;;4991935;28;20934;-74
2021/01/21 03:52:59;;;;;;;4.50;4.10;;;5.80;57.30;;;;;;4991981;28;20205;-74
2021/01/21 03:55:25;;;;;;;5.13;4.05;;;5.90;57.00;;;;;;4992513;28;20295;-73
2021/01/21 03:57:51;;;;;;;4.30;3.15;;;6.00;56.20;;;;;;4992995;28;20251;-73
2021/01/21 04:00:18;;;;;;;4.78;3.65;;;6.10;55.10;;;;;;4996561;28;20677;-75
2021/01/21 04:02:45;;;;;;;4.38;3.95;;;6.20;53.90;;;;;;5000166;28;20267;-73
2021/01/21 04:05:12;;;;;;;4.72;3.42;;;6.30;52.70;;;;;;4992386;28;20220;-74
2021/01/21 04:07:39;;;;;;;5.47;3.22;;;6.40;51.90;;;;;;4995610;28;20217;-74
2021/01/21 04:10:07;;;;;;;6.35;3.90;;;6.50;51.40;;;;;;5012346;28;20216;-74
2021/01/21 04:12:34;;;;;;;3.42;3.13;;;6.60;51.10;;;;;;5015099;28;20200;-75
2021/01/21 04:15:00;;;;;;;5.57;3.53;;;6.70;49.30;;;;;;5012197;28;20241;-74
2021/01/21 04:17:26;;;;;;;4.22;3.60;;;6.90;49.40;;;;;;5001643;28;20283;-73
2021/01/21 04:19:53;;;;;;;5.40;3.38;;;7.00;49.60;;;;;;4998107;28;20228;-74
2021/01/21 04:22:19;;;;;;;3.65;3.15;;;7.10;47.70;;;;;;5008285;28;20204;-72
2021/01/21 04:24:46;;;;;;;3.03;2.70;;;7.20;47.80;;;;;;5016743;28;20242;-77
2021/01/21 04:27:13;;;;;;;4.78;2.70;;;7.10;47.70;;;;;;5017578;28;20188;-77
2021/01/21 04:29:39;;;;;;;5.38;3.67;;;7.20;47.80;;;;;;5018716;28;20232;-73
2021/01/21 04:32:06;;;;;;;3.22;2.90;;;7.20;47.60;;;;;;5019367;28;20219;-73
2021/01/21 04:34:32;;;;;;;2.60;2.40;;;7.20;47.20;;;;;;5016102;28;20212;-72
2021/01/21 04:36:59;;;;;;;3.15;2.65;;;7.20;46.80;;;;;;4998602;28;20192;-75
2021/01/21 04:39:25;;;;;;;3.30;2.25;;;7.30;46.00;;;;;;4995564;28;20260;-73
2021/01/21 04:41:52;;;;;;;4.00;1.90;;;7.30;45.10;;;;;;4994942;28;20224;-73
2021/01/21 04:44:19;;;;;;;5.85;2.58;;;7.60;43.40;;;;;;4994597;28;20223;-74
2021/01/21 04:46:46;;;;;;;3.33;2.28;;;7.70;42.70;;;;;;4994644;28;20228;-73
2021/01/21 04:49:14;;;;;;;3.80;2.40;;;8.00;41.20;;;;;;4994192;28;20542;-73
2021/01/21 04:51:43;;;;;;;2.95;2.10;;;8.00;41.40;;;;;;4994749;28;20209;-75
2021/01/21 04:54:12;;;;;;;2.20;1.98;;;8.10;40.20;;;;;;4995027;28;20212;-74
2021/01/21 04:56:41;;;;;;;2.60;1.55;;;8.30;40.60;;;;;;4997601;28;20200;-74
2021/01/21 04:59:13;;;;;;;2.50;1.38;;;8.60;39.30;;;;;;4999994;28;20233;-74
2021/01/21 05:01:40;;;;;;;6.22;1.90;;;8.70;37.70;;;;;;5000548;28;20697;-74
2021/01/21 05:04:07;;;;;;;2.38;1.35;;;8.90;37.30;;;;;;4996545;28;20193;-74
2021/01/21 05:06:33;;;;;;;1.38;1.27;;;9.10;36.50;;;;;;4996888;28;20730;-73
2021/01/21 05:09:01;;;;;;;3.25;1.60;;;9.20;35.40;;;;;;5002624;28;20283;-73
2021/01/21 05:11:28;;;;;;;1.30;0.98;;;9.40;35.20;;;;;;5012242;28;20216;-74
2021/01/21 05:13:55;;;;;;;1.50;1.00;;;9.50;33.90;;;;;;5011648;28;20212;-73
2021/01/21 05:16:23;;;;;;;3.55;1.50;;;10.00;31.40;;;;;;5014135;28;20208;-75
2021/01/21 05:18:50;;;;;;;1.10;1.00;;;10.60;30.00;;;;;;5004543;28;20233;-74
2021/01/21 05:21:17;;;;;;;2.15;0.80;;;10.80;29.70;;;;;;5006901;28;20211;-73
2021/01/21 05:23:44;;;;;;;1.00;0.90;;;10.90;29.40;;;;;;4995805;28;20324;-74
2021/01/21 05:26:11;;;;;;;4.03;0.93;;;11.10;29.10;;;;;;5000731;28;20235;-76
2021/01/21 05:28:39;;;;;;;1.77;0.63;;;11.30;29.00;;;;;;4997812;28;20232;-76
2021/01/21 05:31:05;;;;;;;2.28;1.23;;;11.30;28.60;;;;;;5001824;28;20204;-74
2021/01/21 05:33:35;;;;;;;1.15;0.80;;;11.40;28.30;;;;;;5003228;28;20319;-74
2021/01/21 05:36:06;;;;;;;1.75;0.65;;;11.50;28.10;;;;;;5001379;28;20211;-75
2021/01/21 05:38:32;;;;;;;2.35;0.90;;;11.70;27.90;;;;;;5006786;28;20295;-76
2021/01/21 05:40:59;;;;;;;1.55;0.60;;;11.90;27.60;;;;;;4991157;28;20218;-76
2021/01/21 05:43:27;;;;;;;2.05;0.73;;;12.00;27.60;;;;;;4978542;28;20209;-75
2021/01/21 05:45:53;;;;;;;0.98;0.85;;;11.90;28.40;;;;;;4983036;28;20221;-73
2021/01/21 05:48:20;;;;;;;0.80;0.80;;;11.80;28.20;;;;;;4992024;28;20284;-73
2021/01/21 05:50:47;;;;;;;3.60;1.08;;;11.90;28.20;;;;;;4990642;28;20205;-74
2021/01/21 05:53:17;;;;;;;1.05;0.70;;;11.90;28.30;;;;;;4984870;28;20224;-74
2021/01/21 05:55:44;;;;;;;2.00;1.27;;;12.00;28.00;;;;;;4983991;28;20197;-75
2021/01/21 05:58:11;;;;;;;0.70;0.65;;;12.00;28.50;;;;;;4982353;28;20252;-75
2021/01/21 06:00:38;;;;;;;1.23;0.93;;;12.00;28.20;;;;;;4981953;28;20205;-75
2021/01/21 06:03:05;;;;;;;1.00;0.70;;;12.00;28.90;;;;;;5051790;23;20722;-77
2021/01/21 06:05:32;;;;;;;2.95;0.80;;;12.10;28.60;;;;;;5035414;28;20250;-78
2021/01/21 06:08:00;;;;;;;0.57;0.57;;;12.20;28.80;;;;;;5035259;28;20234;-78
2021/01/21 06:10:26;;;;;;;1.20;0.80;;;12.10;29.20;;;;;;5032759;28;20264;-76
2021/01/21 06:12:53;;;;;;;0.90;0.70;;;12.10;29.00;;;;;;5018764;28;20227;-79
2021/01/21 06:15:21;;;;;;;3.60;0.70;;;12.10;29.50;;;;;;5018457;28;20204;-77
2021/01/21 06:17:48;;;;;;;1.20;0.80;;;12.10;29.70;;;;;;5016261;28;20212;-77
2021/01/21 06:20:16;;;;;;;1.05;0.60;;;12.20;29.90;;;;;;5013857;28;20250;-78
2021/01/21 06:22:43;;;;;;;3.75;1.10;;;12.20;30.00;;;;;;5013644;28;20230;-75
2021/01/21 06:25:13;;;;;;;0.90;0.90;;;12.20;30.00;;;;;;5014378;28;20216;-79
2021/01/21 06:27:42;;;;;;;0.95;0.70;;;12.20;30.10;;;;;;5014674;28;20215;-77
2021/01/21 06:30:15;;;;;;;0.70;0.70;;;12.30;30.00;;;;;;5014953;28;20670;-76
2021/01/21 06:33:02;;;;;;;0.93;0.73;;;12.30;30.70;;;;;;5027160;28;20232;-85
2021/01/21 06:35:33;;;;;;;1.00;0.80;;;12.40;31.20;;;;;;5036280;28;20175;-77
2021/01/21 06:38:06;;;;;;;1.70;0.77;;;12.40;31.70;;;;;;5025988;28;20298;-78
2021/01/21 06:40:36;;;;;;;0.90;0.90;;;12.40;31.70;;;;;;5019117;28;20195;-80
2021/01/21 06:43:07;;;;;;;1.17;0.73;;;12.40;31.70;;;;;;5020139;28;20228;-78
2021/01/21 06:45:34;;;;;;;1.60;1.50;;;12.40;31.70;;;;;;5019473;28;20227;-80
2021/01/21 06:48:01;;;;;;;1.17;0.77;;;12.40;31.70;;;;;;5023405;28;20204;-80
2021/01/21 06:50:29;;;;;;;1.15;0.60;;;12.40;31.70;;;;;;5020018;28;20556;-78
2021/01/21 06:52:58;;;;;;;2.80;0.90;;;12.30;32.50;;;;;;5021279;28;20727;-78
2021/01/21 06:55:26;;;;;;;1.17;0.68;;;12.40;32.60;;;;;;5020747;28;20203;-79
2021/01/21 06:57:53;;;;;;;1.02;0.70;;;12.40;32.90;;;;;;5023389;28;20196;-78
2021/01/21 07:00:40;;;;;;;0.80;0.80;;;12.40;33.20;;;;;;5026579;28;20227;-77
2021/01/21 07:03:07;;;;;;;2.97;0.88;;;12.40;32.70;;;;;;5031693;28;20239;-79
2021/01/21 07:05:33;;;;;;;3.38;0.95;;;12.40;33.10;;;;;;5019377;28;20232;-79
2021/01/21 07:08:03;;;;;;;5.78;0.80;;;12.50;33.10;;;;;;5014815;28;20223;-79
2021/01/21 07:10:33;;;;;;;1.65;0.80;;;12.50;33.70;;;;;;5014960;28;20212;-79
2021/01/21 07:13:04;;;;;;;0.70;0.70;;;12.40;34.00;;;;;;5024107;28;20244;-79
2021/01/21 07:15:33;;;;;;;2.05;0.80;;;12.30;34.20;;;;;;5029962;28;20195;-79
2021/01/21 07:18:11;;;;;;;8.23;0.98;;;12.30;35.10;;;;;;5035645;28;20215;-76
2021/01/21 07:21:09;;;;;;;0.50;0.50;;;12.40;35.40;;;;;;5026595;28;20200;-79
2021/01/21 07:23:39;;;;;;;1.70;0.73;;;12.40;35.20;;;;;;5023325;28;20680;-79
2021/01/21 07:26:36;;;;;;;0.98;0.70;;;12.30;35.50;;;;;;5026881;28;20232;-79
2021/01/21 07:29:05;;;;;;;1.15;0.70;;;12.30;35.70;;;;;;5025504;28;20207;-79
2021/01/21 07:32:05;;;;;;;2.88;0.70;;;12.30;35.40;;;;;;5031167;28;20215;-77
2021/01/21 07:34:42;;;;;;;0.60;0.60;;;12.30;35.40;;;;;;5048529;28;20212;-77
2021/01/21 07:37:15;;;;;;;0.80;0.80;;;12.30;35.30;;;;;;5029475;28;20195;-75
2021/01/21 07:39:49;;;;;;;0.70;0.68;;;12.30;35.10;;;;;;5029667;28;20211;-77
2021/01/21 07:42:16;;;;;;;1.58;1.33;;;12.30;35.30;;;;;;5025160;28;20254;-78
2021/01/21 07:44:58;;;;;;;1.58;0.55;;;12.30;35.40;;;;;;5018949;28;20547;-79
2021/01/21 07:47:30;;;;;;;3.33;0.70;;;12.20;35.60;;;;;;5021821;28;20265;-78
2021/01/21 07:50:33;;;;;;;3.58;0.73;;;12.30;35.60;;;;;;5013833;28;20251;-79
2021/01/21 07:53:02;;;;;;;2.45;1.05;;;12.40;35.50;;;;;;5023278;28;20239;-82
2021/01/21 07:55:30;;;;;;;2.15;0.98;;;12.40;35.50;;;;;;5025829;28;20295;-79
2021/01/21 07:58:34;;;;;;;2.05;0.73;;;12.50;35.80;;;;;;5021071;28;20282;-78
2021/01/21 08:01:06;;;;;;;2.22;0.60;;;12.60;35.90;;;;;;5017680;28;20214;-77
2021/01/21 08:03:35;;;;;;;1.00;0.70;;;12.70;35.70;;;;;;5017039;28;20196;-78
2021/01/21 08:06:06;;;;;;;3.78;0.95;;;12.80;36.00;;;;;;5027641;28;20250;-78
2021/01/21 08:08:32;;;;;;;1.13;0.70;;;12.70;36.20;;;;;;5018795;28;20209;-78
2021/01/21 08:11:04;;;;;;;1.65;1.42;;;12.70;36.60;;;;;;5024550;28;20222;-80
2021/01/21 08:13:31;;;;;;;0.55;0.55;;;12.70;36.80;;;;;;5029485;28;20223;-79
2021/01/21 08:15:58;;;;;;;1.00;0.55;;;12.80;36.60;;;;;;5026862;28;20677;-78
2021/01/21 08:18:35;;;;;;;1.42;0.63;;;12.80;36.80;;;;;;5109763;23;20223;-79
2021/01/21 08:36:27;;;;;;;1.38;0.73;;;12.70;37.70;;;;;;5025020;28;20487;-82
2021/01/21 08:38:55;;;;;;;0.60;0.50;;;12.70;37.70;;;;;;5023831;28;20218;-80
2021/01/21 08:41:23;;;;;;;0.95;0.60;;;12.70;37.90;;;;;;5022936;28;20219;-79
2021/01/21 08:43:49;;;;;;;0.60;0.60;;;12.70;37.10;;;;;;5024782;28;20196;-80
2021/01/21 08:46:17;;;;;;;2.85;0.70;;;12.80;37.20;;;;;;5027055;28;20232;-80
2021/01/21 08:48:44;;;;;;;1.40;0.55;;;12.80;37.10;;;;;;5026337;28;20217;-81
2021/01/21 08:51:35;;;;;;;0.98;0.80;;;12.80;37.10;;;;;;5026742;28;20219;-81
2021/01/21 08:54:16;;;;;;;2.15;0.82;;;12.90;37.30;;;;;;5024268;28;20192;-81
2021/01/21 08:56:43;;;;;;;1.08;0.60;;;12.90;37.20;;;;;;5026775;28;20200;-80
2021/01/21 08:59:30;;;;;;;0.60;0.50;;;13.00;37.00;;;;;;5026098;28;20210;-83
2021/01/21 09:01:58;;;;;;;1.48;0.60;;;13.00;36.70;;;;;;5024867;28;20236;-79
2021/01/21 09:04:26;;;;;;;1.95;0.50;;;13.00;36.70;;;;;;5026711;28;20294;-81
2021/01/21 09:06:58;;;;;;;0.82;0.73;;;13.10;36.50;;;;;;5031410;28;20251;-80
2021/01/21 09:09:30;;;;;;;2.55;0.90;;;13.10;36.50;;;;;;5033101;28;20204;-81
2021/01/21 09:11:58;;;;;;;1.00;0.60;;;13.10;36.40;;;;;;5029836;28;20243;-81
2021/01/21 09:14:26;;;;;;;1.38;0.52;;;13.20;36.60;;;;;;5017925;28;20236;-84
2021/01/21 09:16:54;;;;;;;7.43;0.70;;;13.40;36.10;;;;;;5030581;28;20211;-81
2021/01/21 09:19:41;;;;;;;2.35;0.63;;;13.40;35.90;;;;;;5031437;28;20322;-79
2021/01/21 09:22:10;;;;;;;1.25;0.60;;;13.50;35.80;;;;;;5027420;28;20243;-81
2021/01/21 09:24:55;;;;;;;2.35;0.80;;;13.60;36.00;;;;;;5030841;28;20231;-83
2021/01/21 09:27:23;;;;;;;0.73;0.50;;;13.70;35.90;;;;;;5031438;28;20263;-85
2021/01/21 09:29:51;;;;;;;0.73;0.60;;;13.70;35.70;;;;;;5033084;28;20283;-82
2021/01/21 09:32:18;;;;;;;0.85;0.85;;;13.90;35.60;;;;;;5033673;28;20235;-82
2021/01/21 09:34:52;;;;;;;0.60;0.50;;;13.80;35.60;;;;;;5032593;28;20204;-81
2021/01/21 09:37:20;;;;;;;1.40;0.50;;;13.90;35.70;;;;;;5033705;28;20231;-86
2021/01/21 09:39:47;;;;;;;1.15;0.77;;;13.90;36.00;;;;;;5037583;28;20238;-79
2021/01/21 09:42:13;;;;;;;1.45;0.70;;;13.90;36.30;;;;;;5024295;28;20223;-81
2021/01/21 09:44:40;;;;;;;1.20;0.50;;;13.90;36.80;;;;;;5027733;28;20223;-81
2021/01/21 09:47:06;;;;;;;3.80;0.70;;;13.80;36.50;;;;;;5022972;28;20228;-81
2021/01/21 09:49:36;;;;;;;6.32;1.42;;;13.80;37.20;;;;;;5031453;28;20204;-81
2021/01/21 09:52:05;;;;;;;1.45;0.55;;;13.70;37.80;;;;;;5036133;28;20242;-79
2021/01/21 09:54:33;;;;;;;1.08;0.50;;;13.60;38.00;;;;;;5034693;28;20279;-81
2021/01/21 09:56:59;;;;;;;0.65;0.65;;;13.50;39.30;;;;;;5035456;28;20291;-80
2021/01/21 09:59:26;;;;;;;0.60;0.57;;;13.30;40.50;;;;;;5034343;28;20204;-83
2021/01/21 10:01:58;;;;;;;0.75;0.60;;;13.10;42.40;;;;;;5033577;28;20211;-80
2021/01/21 10:04:24;;;;;;;1.15;0.75;;;13.00;42.30;;;;;;5033804;28;20180;-84
2021/01/21 10:06:51;;;;;;;0.77;0.50;;;13.00;42.30;;;;;;5023401;28;20798;-81
2021/01/21 10:09:18;;;;;;;1.20;0.82;;;12.90;42.20;;;;;;5021600;28;20242;-78
2021/01/21 10:11:45;;;;;;;0.80;0.80;;;12.90;42.80;;;;;;5021395;28;20224;-81
2021/01/21 10:14:12;;;;;;;0.93;0.50;;;12.70;43.00;;;;;;5027117;28;20208;-81
2021/01/21 10:16:38;;;;;;;0.65;0.52;;;12.80;43.20;;;;;;5026411;28;20188;-80
2021/01/21 10:19:06;;;;;;;0.90;0.75;;;12.70;44.10;;;;;;5018602;28;20211;-88
2021/01/21 10:21:34;;;;;;;1.40;0.98;;;12.70;45.60;;;;;;5016130;28;20372;-83
2021/01/21 10:24:00;;;;;;;1.63;0.57;;;12.70;46.00;;;;;;5012741;28;20197;-80
2021/01/21 10:26:26;;;;;;;3.80;0.60;;;12.80;45.70;;;;;;5017668;28;20235;-82
2021/01/21 10:28:54;;;;;;;0.82;0.70;;;12.80;44.60;;;;;;5034756;28;20215;-85
2021/01/21 10:31:20;;;;;;;0.95;0.60;;;12.80;44.80;;;;;;5034774;28;20219;-86
2021/01/21 10:33:46;;;;;;;0.75;0.73;;;12.90;43.30;;;;;;5029899;28;20247;-82
2021/01/21 10:36:14;;;;;;;0.40;0.40;;;12.90;42.20;;;;;;5003977;28;20287;-79
2021/01/21 10:38:41;;;;;;;0.50;0.50;;;13.00;42.30;;;;;;5017191;28;20570;-82
2021/01/21 10:41:08;;;;;;;2.08;0.60;;;13.00;42.30;;;;;;5023157;28;20537;-81
2021/01/21 10:43:35;;;;;;;0.93;0.60;;;13.00;42.20;;;;;;5001521;28;20258;-82
2021/01/21 10:46:03;;;;;;;0.77;0.70;;;13.10;41.10;;;;;;5010396;28;20638;-80
2021/01/21 10:48:30;;;;;;;0.60;0.50;;;13.10;40.90;;;;;;5009023;28;20571;-78
2021/01/21 10:50:57;;;;;;;1.33;0.65;;;13.20;40.70;;;;;;5017303;28;20234;-82
2021/01/21 10:53:23;;;;;;;0.88;0.70;;;13.30;40.40;;;;;;4999492;28;20217;-79
2021/01/21 10:55:50;;;;;;;1.63;0.70;;;13.40;40.10;;;;;;5001031;28;20204;-80
2021/01/21 10:58:17;;;;;;;1.27;1.08;;;13.40;39.70;;;;;;4998743;28;20209;-81
2021/01/21 11:00:46;;;;;;;1.13;0.70;;;13.60;39.60;;;;;;5005173;28;20548;-82
2021/01/21 11:03:13;;;;;;;1.02;0.80;;;13.60;39.70;;;;;;5024959;28;20232;-82
2021/01/21 11:05:41;;;;;;;0.52;0.50;;;13.70;39.70;;;;;;5026031;28;20235;-80
2021/01/21 11:08:08;;;;;;;1.42;0.80;;;13.70;39.60;;;;;;5033195;28;20184;-81
2021/01/21 11:10:34;;;;;;;0.65;0.57;;;13.60;40.50;;;;;;5034621;28;20253;-80
2021/01/21 11:13:01;;;;;;;2.92;0.82;;;13.60;39.80;;;;;;5032918;28;20310;-87
2021/01/21 11:15:27;;;;;;;1.00;0.80;;;13.60;39.70;;;;;;5032304;28;20258;-79
2021/01/21 11:17:53;;;;;;;0.70;0.70;;;13.60;40.00;;;;;;5026429;28;20200;-83
2021/01/21 11:20:21;;;;;;;2.65;0.80;;;13.60;40.20;;;;;;5020704;28;20227;-82
2021/01/21 11:22:47;;;;;;;1.60;1.13;;;13.60;39.70;;;;;;5021780;28;20267;-82
2021/01/21 11:25:14;;;;;;;1.40;0.90;;;13.50;40.10;;;;;;5018099;28;20208;-83
2021/01/21 11:27:41;;;;;;;1.20;1.05;;;13.60;40.10;;;;;;5024770;28;20239;-80
2021/01/21 11:30:09;;;;;;;4.22;0.60;;;13.60;40.40;;;;;;5030192;28;20656;-80
2021/01/21 11:32:36;;;;;;;1.20;1.10;;;13.60;40.30;;;;;;5025591;28;20529;-80
2021/01/21 11:35:04;;;;;;;1.05;0.77;;;13.70;40.10;;;;;;5022365;28;20230;-81
2021/01/21 11:37:31;;;;;;;0.82;0.70;;;13.50;40.50;;;;;;5029947;28;20208;-82
2021/01/21 11:39:58;;;;;;;1.42;0.70;;;13.40;40.80;;;;;;5035335;28;20230;-81
2021/01/21 11:42:24;;;;;;;0.90;0.90;;;13.30;41.40;;;;;;5027627;28;20258;-81
2021/01/21 11:44:51;;;;;;;1.10;0.90;;;13.30;41.40;;;;;;5023718;28;20244;-82
2021/01/21 11:47:17;;;;;;;1.60;0.70;;;13.20;41.30;;;;;;5024472;28;20251;-81
2021/01/21 11:49:44;;;;;;;1.50;0.95;;;13.10;41.80;;;;;;5031353;28;20200;-81
2021/01/21 11:52:10;;;;;;;3.92;0.80;;;13.00;42.10;;;;;;5025270;28;20224;-80
2021/01/21 11:54:38;;;;;;;1.45;0.85;;;13.00;42.30;;;;;;5002223;28;20283;-82
2021/01/21 11:57:05;;;;;;;0.70;0.68;;;13.00;42.30;;;;;;5003841;28;20208;-81
2021/01/21 11:59:31;;;;;;;1.00;0.70;;;13.00;42.30;;;;;;5006209;28;20204;-79
2021/01/21 12:01:58;;;;;;;0.93;0.75;;;13.00;42.30;;;;;;5002599;28;20380;-80
2021/01/21 12:04:24;;;;;;;3.45;1.67;;;13.00;42.30;;;;;;5020190;28;20200;-81
2021/01/21 12:06:51;;;;;;;1.55;0.93;;;13.00;42.30;;;;;;5022622;28;20251;-82
2021/01/21 12:09:17;;;;;;;0.50;0.50;;;12.90;42.20;;;;;;5027997;28;20691;-84
2021/01/21 12:11:45;;;;;;;1.60;0.95;;;12.90;42.20;;;;;;5023852;28;20228;-83
2021/01/21 12:14:11;;;;;;;0.77;0.68;;;12.90;42.50;;;;;;5021698;28;20204;-84
2021/01/21 12:16:38;;;;;;;1.75;1.25;;;12.80;43.90;;;;;;5032223;28;20190;-78
2021/01/21 12:19:04;;;;;;;1.17;0.80;;;12.50;45.60;;;;;;5025833;28;20246;-85
2021/01/21 12:21:34;;;;;;;1.10;1.00;;;12.50;46.70;;;;;;5029132;28;20238;-78
2021/01/21 12:24:01;;;;;;;1.60;1.00;;;12.10;49.10;;;;;;5033654;28;20200;-79
2021/01/21 12:26:29;;;;;;;6.75;1.05;;;11.80;50.90;;;;;;5032945;28;20239;-78
2021/01/21 12:28:56;;;;;;;1.55;1.15;;;11.60;52.50;;;;;;5030667;28;20209;-79
2021/01/21 12:31:22;;;;;;;2.03;0.98;;;11.50;53.40;;;;;;5039192;28;20211;-79
2021/01/21 12:38:06;;;;;;;1.48;1.00;;;11.20;55.50;;;;;;5017576;28;20207;-79
2021/01/21 12:40:32;;;;;;;0.80;0.80;;;11.00;57.30;;;;;;5029995;28;20204;-79
2021/01/21 12:42:58;;;;;;;1.30;1.15;;;10.80;58.40;;;;;;5021479;28;20235;-80
2021/01/21 12:49:01;;;;;;;1.05;0.90;;;10.70;60.20;;;;;;5030837;28;20194;-79
2021/01/21 13:47:43;;;;;;;2.85;1.20;;;8.80;83.50;;;;;;5018607;28;20297;-79
2021/01/21 13:50:13;;;;;;;1.75;0.95;;;8.80;81.70;;;;;;5021850;28;20204;-81
2021/01/21 13:52:40;;;;;;;1.88;0.70;;;8.80;80.90;;;;;;5018392;28;20227;-80
2021/01/21 13:55:07;;;;;;;2.45;1.10;;;8.80;79.70;;;;;;5019441;28;20219;-81
2021/01/21 13:57:34;;;;;;;3.72;0.90;;;8.80;79.40;;;;;;5018230;28;20204;-81
2021/01/21 14:00:00;;;;;;;3.03;1.08;;;8.90;79.20;;;;;;5021165;23;20228;-79
2021/01/21 14:02:27;;;;;;;7.32;0.80;;;8.90;79.30;;;;;;4996972;28;20208;-77
2021/01/21 14:04:54;;;;;;;1.10;0.82;;;8.90;79.20;;;;;;4997851;28;20299;-77
2021/01/21 14:07:21;;;;;;;4.28;0.95;;;8.80;80.40;;;;;;4995897;28;20282;-76
2021/01/21 14:09:47;;;;;;;0.98;0.88;;;8.80;81.40;;;;;;4998399;28;20228;-77
2021/01/21 14:12:14;;;;;;;5.72;1.00;;;8.80;82.50;;;;;;5000302;28;20771;-78
2021/01/21 14:14:40;;;;;;;3.03;0.88;;;8.70;84.60;;;;;;4999629;28;20216;-77
2021/01/21 14:17:06;;;;;;;0.68;0.60;;;8.70;85.60;;;;;;5000993;28;20288;-82
2021/01/21 14:19:33;;;;;;;1.48;0.93;;;8.70;86.30;;;;;;4997380;28;20236;-78
2021/01/21 14:22:00;;;;;;;1.20;0.90;;;8.60;86.80;;;;;;4997340;28;20204;-77
2021/01/21 14:24:27;;;;;;;2.03;0.80;;;8.60;88.10;;;;;;5001285;28;20201;-78
2021/01/21 14:26:53;;;;;;;1.55;0.75;;;8.60;88.60;;;;;;5017571;28;20274;-78
2021/01/21 14:29:19;;;;;;;2.33;1.00;;;8.60;88.40;;;;;;5011704;28;20220;-78
2021/01/21 14:31:46;;;;;;;1.70;0.80;;;8.60;88.70;;;;;;5001508;28;20204;-78
2021/01/21 14:34:13;;;;;;;3.58;1.50;;;8.50;89.10;;;;;;5001520;28;20212;-79
2021/01/21 14:36:39;;;;;;;5.47;1.27;;;8.60;90.10;;;;;;4996558;28;20672;-77
2021/01/21 14:39:08;;;;;;;5.75;1.60;;;8.50;90.30;;;;;;4995430;28;20228;-76
2021/01/21 14:41:34;;;;;;;3.55;1.70;;;8.50;91.10;;;;;;4998940;28;20208;-77
2021/01/21 14:44:01;;;;;;;17.05;2.15;;;8.50;91.10;;;;;;5003779;28;20246;-77
2021/01/21 14:46:28;;;;;;;9.02;2.42;;;8.60;91.20;;;;;;5014548;28;20227;-77